MAPA DE AEROPUERTO

INFORMACIÓN METAR y TAF

METAR FOR LEBZ
ADDS - METARS form results

(1617 UTC 07 May 2021)
Data provider http://aviationweather.gov/metar/data/
 
METAR text: LEBZ 071600Z 26007KT 200V320 CAVOK 29/02 Q1016
Conditions at: LEBZ (TALAVERA AB/BADA, ES) observed 1600 UTC 07 May 2021
Temperature: 29.0°C (84°F)
Dewpoint: 2.0°C (36°F) [RH = 18%]
Pressure (altimeter): 30.00 inches Hg (1016.0 mb)
Winds: from the W (260 degrees) at 8 MPH (7 knots; 3.6 m/s)
Visibility: 6 or more miles (10+ km)
Ceiling: ceiling and visibility are OK
Clouds: unknown
Weather: no significant weather observed at this time

METAR text: LEBZ 071530Z 27005KT 190V340 CAVOK 28/02 Q1016
Conditions at: LEBZ (TALAVERA AB/BADA, ES) observed 1530 UTC 07 May 2021
Temperature: 28.0°C (82°F)
Dewpoint: 2.0°C (36°F) [RH = 19%]
Pressure (altimeter): 30.00 inches Hg (1016.0 mb)
Winds: from the W (270 degrees) at 6 MPH (5 knots; 2.6 m/s)
Visibility: 6 or more miles (10+ km)
Ceiling: ceiling and visibility are OK
Clouds: unknown
Weather: no significant weather observed at this time

Forecast for: LEBZ (TALAVERA AB/BADA, ES)
Text: TAF LEBZ 071400Z 0715/0815 26007KT CAVOK TX30/0814Z TN12/0806Z
Forecast period: 1500 UTC 07 May 2021 to 1500 UTC 08 May 2021
Forecast type: FROM: standard forecast or significant change
Winds: from the W (260 degrees) at 8 MPH (7 knots; 3.6 m/s)
Visibility: 6 or more miles (10+ km)
Ceiling: unknown
Clouds: missing
Weather: no significant weather forecast for this period